La Belle, MO

4:30 AM CDT on July 30, 2014 (GMT -0500)
Marion Co RII Fire Station (KMOPHILA4) Elev 705 ft | 39.84 °N, 91.73 °W | Change Station

Current weather conditions updated 48 seconds ago

Mostly Cloudy
Mostly Cloudy
58.4 °F
Feels Like 58.4 °F
N
0.0
Wind Variable Wind from East
Gusts 1.0 mph

Today is forecast to be Warmer than yesterday.

Today
High -- | Low -- °F
--% Chance of Precip.
Yesterday
High -- | Low -- °F
Precip. -- in
6:03 AM 8:23 PM
Waxing Crescent, 10% visible
Pressure 30.09 in
Visibility 10.0 miles
Clouds Mostly Cloudy 7000 ft
Dew Point 57 °F
Humidity 94%
Rainfall 0.00 in
Snow Depth Not available.
UV 0 out of 12
Pollen 6.30 out of 12
Air Quality Not available.
Flu Activity Not available.
METAR KIRK 300855Z AUTO 00000KT 10SM BKN070 15/14 A3009 RMK AO2 SLP187 T01500139 58008

More Conditions Fewer Conditions

Pressure 30.09 in
Visibility 10.0 miles
Clouds Mostly Cloudy 7000 ft
Dew Point 57 °F
Humidity 94%
Rainfall 0.00 in
Snow Depth Not available.
UV 0 out of 12
Pollen 6.30 out of 12
Air Quality Not available.
Flu Activity Not available.
METAR KIRK 300855Z AUTO 00000KT 10SM BKN070 15/14 A3009 RMK AO2 SLP187 T01500139 58008

More Conditions Fewer Conditions

10-Day Weather Forecast

Almanac

Astronomy

Jul. 30, 2014 Rise Set
Actual Time 6:03 AM CDT 8:23 PM CDT
Civil Twilight 5:33 AM CDT 8:54 PM CDT
Nautical Twilight 4:55 AM CDT 9:31 PM CDT
Astronomical Twilight 4:13 AM CDT 10:13 PM CDT
Moon 9:36 AM CDT 10:06 PM CDT
Length of Visible Light 15h 20m
Length of Day
14h 19m
Tomorrow will be 1m 56s shorter.
Waxing Crescent, 10% of the Moon is Illuminated
Today
Waxing Crescent
Aug 3
First Quarter
Aug 10
Full
Aug 17
Last Quarter
Aug 25
New

Today's Extremes

State Highs State Lows

Community

WunderPhotos

Upload Photos

1,739,029 photos uploaded!

WunderBlogs® & News

By Dr. Jeff Masters
Director of Meteorology, Weather Underground
By Kari Strenfel
Meteorologist, Weather Underground
By Christopher C. Burt
Weather Historian, Weather Underground
July 29, 2014
July 29, 2014
July 29, 2014

Nearby

Snow Depth

Station Depth Elevation
No new snow has been reported.

Earthquake Activity

City Distance Mag. Time & Date
No recent earthquake activity has been reported nearby.
Minimum magnitude displayed is 2.5.

Coastal Water Temperatures

Place Temperature
No Stations Reporting

Nearby Weather Stations

Station Location Temp. Dew Point Humidity Wind Precip. Elev Updated Type
Marion Co RII Fire Station, Philadelphia, MO 58.4 °F 57 °F 94% East  at  0.0 mph 0.00 in / hr 705 ft 4:30 AM CDT Normal

Show More Stations Show Fewer Stations